createdAt,value
2018-10-07T00:02:26.213Z,78.10
2018-10-07T00:04:54.838Z,78.20
2018-10-07T00:07:23.535Z,78.40
2018-10-07T00:09:53.364Z,78.40
2018-10-07T00:12:22.000Z,78.60
2018-10-07T00:14:50.604Z,78.60
2018-10-07T00:17:19.218Z,78.70
2018-10-07T00:19:47.842Z,78.90
2018-10-07T00:22:16.458Z,79.20
2018-10-07T00:24:45.058Z,79.70
2018-10-07T00:27:13.646Z,80.00
2018-10-07T00:29:42.309Z,80.10
2018-10-07T00:32:13.840Z,80.10
2018-10-07T00:34:43.349Z,80.30
2018-10-07T00:37:11.983Z,80.20
2018-10-07T00:39:40.709Z,80.50
2018-10-07T00:42:10.409Z,80.30
2018-10-07T00:44:39.051Z,80.50
2018-10-07T00:47:07.693Z,80.70
2018-10-07T00:49:36.418Z,80.80
2018-10-07T00:52:05.092Z,81.20
2018-10-07T00:54:33.738Z,81.90
2018-10-07T00:57:02.402Z,82.00
2018-10-07T00:59:31.047Z,82.10
2018-10-07T01:01:59.684Z,82.50
2018-10-07T01:04:28.295Z,82.60
2018-10-07T01:06:56.919Z,83.00
2018-10-07T01:09:25.578Z,83.30
2018-10-07T01:11:54.171Z,83.40
2018-10-07T01:14:22.782Z,84.10
2018-10-07T01:16:51.409Z,84.60
2018-10-07T01:19:20.036Z,84.40
2018-10-07T01:21:48.812Z,84.70
2018-10-07T01:24:17.455Z,85.20
2018-10-07T01:26:46.054Z,85.30
2018-10-07T01:29:14.707Z,85.70
2018-10-07T01:31:43.327Z,85.70
2018-10-07T01:34:11.950Z,85.40
2018-10-07T01:36:40.562Z,85.70
2018-10-07T01:39:11.170Z,85.90
2018-10-07T01:41:39.775Z,85.60
2018-10-07T01:44:08.435Z,85.80
2018-10-07T01:46:37.111Z,86.20
2018-10-07T01:49:05.805Z,86.30
2018-10-07T01:51:37.964Z,86.50
2018-10-07T01:54:06.624Z,86.50
2018-10-07T01:56:35.249Z,87.10
2018-10-07T01:59:03.923Z,87.50
2018-10-07T02:01:32.529Z,88.00
2018-10-07T02:04:01.187Z,88.10
2018-10-07T02:06:29.842Z,88.00
2018-10-07T02:08:58.469Z,88.00
2018-10-07T02:11:27.084Z,88.00
2018-10-07T02:13:55.767Z,88.60
2018-10-07T02:16:24.475Z,88.70
2018-10-07T02:18:53.088Z,88.90
2018-10-07T02:21:21.740Z,89.30
2018-10-07T02:23:50.354Z,89.20
2018-10-07T02:26:18.986Z,89.40
2018-10-07T02:28:47.614Z,89.00
2018-10-07T02:31:16.230Z,89.40
2018-10-07T02:33:44.833Z,89.50
2018-10-07T02:36:13.481Z,89.70
2018-10-07T02:38:42.073Z,90.20
2018-10-07T02:41:10.696Z,90.10
2018-10-07T02:43:39.321Z,90.30
2018-10-07T02:46:08.191Z,90.50
2018-10-07T02:48:36.911Z,90.70
2018-10-07T02:51:05.838Z,90.80
2018-10-07T02:53:34.652Z,90.80
2018-10-07T02:56:03.284Z,91.10
2018-10-07T02:58:32.027Z,91.30
2018-10-07T03:01:00.655Z,91.80
2018-10-07T03:03:29.311Z,91.80
2018-10-07T03:05:57.968Z,91.80
2018-10-07T03:08:26.584Z,91.80
2018-10-07T03:10:55.209Z,92.00
2018-10-07T03:13:23.857Z,92.20
2018-10-07T03:15:52.450Z,92.20
2018-10-07T03:18:21.080Z,92.40
2018-10-07T03:20:49.740Z,92.40
2018-10-07T03:23:18.296Z,92.40
2018-10-07T03:25:46.918Z,92.40
2018-10-07T03:28:15.536Z,92.40
2018-10-07T03:30:44.160Z,92.50
2018-10-07T03:33:12.785Z,92.50
2018-10-07T03:35:41.412Z,93.10
2018-10-07T03:38:10.021Z,92.90
2018-10-07T03:40:38.614Z,93.30
2018-10-07T03:43:07.239Z,93.10
2018-10-07T03:45:35.838Z,93.70
2018-10-07T03:48:04.455Z,93.70
2018-10-07T03:50:33.058Z,93.80
2018-10-07T03:53:01.716Z,93.70
2018-10-07T03:55:30.335Z,93.60
2018-10-07T03:57:58.953Z,93.10
2018-10-07T04:00:27.597Z,92.80
2018-10-07T04:02:56.280Z,93.40
2018-10-07T04:05:24.884Z,93.80
2018-10-07T04:07:53.541Z,94.00
2018-10-07T04:10:22.150Z,94.20
2018-10-07T04:12:50.778Z,94.80
2018-10-07T04:15:19.402Z,94.40
2018-10-07T04:17:48.028Z,94.50
2018-10-07T04:20:16.665Z,94.80
2018-10-07T04:22:45.378Z,95.10
2018-10-07T04:25:13.985Z,94.60
2018-10-07T04:27:42.603Z,95.00
2018-10-07T04:30:11.209Z,94.60
2018-10-07T04:32:39.834Z,94.70
2018-10-07T04:35:08.458Z,95.20
2018-10-07T04:37:37.080Z,95.00
2018-10-07T04:40:05.770Z,95.10
2018-10-07T04:42:34.403Z,95.10
2018-10-07T04:45:03.018Z,95.10
2018-10-07T04:47:31.636Z,95.20
2018-10-07T04:50:00.234Z,94.90
2018-10-07T04:52:28.875Z,95.00
2018-10-07T04:54:57.461Z,95.40
2018-10-07T04:57:26.295Z,95.10
2018-10-07T04:59:54.907Z,95.40
2018-10-07T05:02:23.526Z,95.40
2018-10-07T05:04:52.193Z,95.10
2018-10-07T05:07:21.045Z,94.90
2018-10-07T05:09:49.724Z,94.60
2018-10-07T05:12:19.010Z,94.70
2018-10-07T05:14:47.724Z,94.80
2018-10-07T05:17:17.703Z,94.60
2018-10-07T05:19:46.346Z,94.20
2018-10-07T05:22:14.990Z,93.90
2018-10-07T05:24:43.625Z,93.80
2018-10-07T05:27:12.269Z,93.80
2018-10-07T05:29:40.896Z,93.90
2018-10-07T05:32:09.520Z,93.90
2018-10-07T05:34:38.134Z,93.80
2018-10-07T05:37:06.781Z,93.80
2018-10-07T05:39:35.374Z,94.10
2018-10-07T05:42:03.977Z,94.20
2018-10-07T05:44:32.630Z,94.40
2018-10-07T05:47:01.221Z,94.70
2018-10-07T05:49:29.893Z,95.10
2018-10-07T05:51:58.553Z,95.50
2018-10-07T05:54:27.177Z,95.30
2018-10-07T05:56:55.802Z,95.30
2018-10-07T05:59:24.521Z,95.50
2018-10-07T06:01:54.895Z,95.30
2018-10-07T06:04:34.737Z,95.20
2018-10-07T06:07:04.458Z,94.80
2018-10-07T06:09:34.611Z,94.30
2018-10-07T06:12:03.304Z,94.20
2018-10-07T06:14:43.149Z,93.70
2018-10-07T06:17:11.849Z,93.70
2018-10-07T06:19:40.542Z,93.50
2018-10-07T06:22:09.225Z,93.60
2018-10-07T06:24:37.878Z,93.60
2018-10-07T06:27:06.941Z,93.50
2018-10-07T06:29:35.644Z,93.50
2018-10-07T06:32:04.410Z,93.60
2018-10-07T06:34:33.060Z,93.70
2018-10-07T06:37:02.727Z,93.60
2018-10-07T06:39:31.440Z,93.60
2018-10-07T06:42:00.153Z,93.50
2018-10-07T06:44:28.797Z,93.60
2018-10-07T06:46:57.457Z,93.40
2018-10-07T06:49:26.090Z,93.20
2018-10-07T06:51:54.759Z,93.20
2018-10-07T06:54:23.433Z,93.10
2018-10-07T06:56:52.098Z,92.70
2018-10-07T06:59:20.798Z,92.60
2018-10-07T07:01:49.478Z,92.10
2018-10-07T07:04:18.285Z,91.40
2018-10-07T07:06:46.870Z,90.90
2018-10-07T07:09:15.468Z,91.00
2018-10-07T07:11:44.076Z,90.60
2018-10-07T07:14:12.706Z,90.10
2018-10-07T07:16:41.312Z,89.70
2018-10-07T07:19:09.952Z,89.80
2018-10-07T07:21:38.667Z,89.80
2018-10-07T07:24:07.292Z,90.20
2018-10-07T07:26:35.882Z,89.40
2018-10-07T07:29:04.510Z,88.90
2018-10-07T07:31:33.176Z,88.30
2018-10-07T07:34:01.767Z,88.50
2018-10-07T07:36:30.391Z,88.80
2018-10-07T07:38:59.040Z,89.10
2018-10-07T07:41:27.645Z,89.20
2018-10-07T07:44:01.438Z,89.70
2018-10-07T07:46:30.399Z,89.80
2018-10-07T07:48:59.042Z,90.10
2018-10-07T07:51:27.680Z,89.10
2018-10-07T07:53:56.288Z,88.00
2018-10-07T07:56:24.926Z,86.80
2018-10-07T07:58:53.574Z,86.40
2018-10-07T08:01:22.724Z,86.20
2018-10-07T08:03:51.330Z,86.00
2018-10-07T08:06:19.967Z,86.30
2018-10-07T08:08:48.623Z,83.10
2018-10-07T08:11:17.261Z,83.10
2018-10-07T08:13:45.924Z,81.20
2018-10-07T08:16:14.564Z,81.20
2018-10-07T08:18:43.169Z,80.60
2018-10-07T08:21:11.873Z,81.10
2018-10-07T08:23:40.588Z,80.90
2018-10-07T08:26:09.320Z,80.80
2018-10-07T08:28:38.076Z,81.10
2018-10-07T08:31:06.715Z,80.50
2018-10-07T08:33:35.371Z,80.20
2018-10-07T08:36:04.064Z,79.50
2018-10-07T08:38:32.673Z,78.30
2018-10-07T08:41:01.288Z,78.30
2018-10-07T08:43:29.916Z,77.50
2018-10-07T08:45:58.560Z,76.80
2018-10-07T08:48:27.177Z,75.60
2018-10-07T08:50:55.854Z,75.00
2018-10-07T08:53:24.568Z,74.50
2018-10-07T08:55:53.286Z,75.20
2018-10-07T08:58:21.888Z,74.70
2018-10-07T09:00:50.497Z,71.90
2018-10-07T09:03:19.136Z,72.80
2018-10-07T09:05:47.793Z,72.10
2018-10-07T09:08:16.413Z,72.50
2018-10-07T09:10:45.056Z,72.90
2018-10-07T09:13:17.460Z,71.10
2018-10-07T09:15:46.295Z,71.80
2018-10-07T09:18:14.879Z,72.10
2018-10-07T09:20:43.482Z,72.20
2018-10-07T09:23:12.154Z,71.80
2018-10-07T09:25:40.820Z,72.20
2018-10-07T09:28:09.505Z,70.80
2018-10-07T09:30:38.618Z,70.10
2018-10-07T09:33:07.275Z,71.90
2018-10-07T09:35:35.914Z,71.10
2018-10-07T09:38:04.581Z,70.90
2018-10-07T09:40:33.203Z,71.60
2018-10-07T09:43:02.062Z,71.40
2018-10-07T09:45:30.723Z,72.20
2018-10-07T09:47:59.443Z,71.60
2018-10-07T09:50:28.079Z,70.60
2018-10-07T09:52:56.688Z,71.00
2018-10-07T09:55:28.255Z,70.70
2018-10-07T09:57:57.339Z,70.80
2018-10-07T10:00:31.205Z,71.40
2018-10-07T10:03:00.778Z,71.20
2018-10-07T10:05:29.452Z,70.90
2018-10-07T10:07:58.073Z,70.30
2018-10-07T10:10:27.284Z,70.60
2018-10-07T10:12:55.912Z,71.20
2018-10-07T10:15:24.528Z,70.30
2018-10-07T10:18:02.767Z,70.20
2018-10-07T10:20:45.888Z,68.70
2018-10-07T10:23:24.116Z,68.30
2018-10-07T10:26:04.325Z,68.80
2018-10-07T10:28:56.223Z,68.40
2018-10-07T10:31:32.538Z,67.40
2018-10-07T10:34:12.447Z,68.50
2018-10-07T10:36:51.506Z,67.30
2018-10-07T10:39:28.567Z,68.40
2018-10-07T10:42:05.259Z,67.60
2018-10-07T10:44:54.078Z,68.00
2018-10-07T10:47:32.826Z,69.40
2018-10-07T10:50:28.369Z,69.00
2018-10-07T10:53:49.036Z,69.70
2018-10-07T10:56:26.560Z,71.00
2018-10-07T11:01:12.136Z,71.10
2018-10-07T11:03:49.570Z,72.20
2018-10-07T11:06:26.469Z,73.30
2018-10-07T11:09:03.101Z,73.70
2018-10-07T11:12:10.234Z,73.60
2018-10-07T11:15:01.514Z,73.60
2018-10-07T11:17:40.527Z,73.40
2018-10-07T11:20:18.503Z,72.70
2018-10-07T11:23:27.246Z,73.10
2018-10-07T11:26:03.624Z,72.90
2018-10-07T11:29:00.370Z,72.80
2018-10-07T11:31:44.864Z,73.50
2018-10-07T11:36:24.178Z,74.80
2018-10-07T11:39:02.380Z,74.80
2018-10-07T11:41:35.163Z,75.40
2018-10-07T11:46:14.598Z,76.00
2018-10-07T11:48:49.969Z,76.30
2018-10-07T11:53:29.102Z,76.80
2018-10-07T11:55:58.729Z,77.30
2018-10-07T11:58:29.779Z,76.20
2018-10-07T12:01:02.050Z,76.30
2018-10-07T12:03:30.733Z,77.20
2018-10-07T12:05:59.322Z,77.60
2018-10-07T12:08:28.079Z,77.40
2018-10-07T12:10:56.665Z,77.70
2018-10-07T12:13:33.105Z,78.40
2018-10-07T12:16:01.748Z,78.90
2018-10-07T12:18:31.403Z,79.30
2018-10-07T12:21:00.012Z,80.50
2018-10-07T12:23:30.696Z,80.80
2018-10-07T12:25:59.444Z,81.10
2018-10-07T12:28:28.031Z,81.90
2018-10-07T12:30:56.612Z,81.90
2018-10-07T12:33:25.181Z,82.20
2018-10-07T12:35:53.802Z,82.80
2018-10-07T12:38:22.493Z,84.10
2018-10-07T12:40:51.468Z,83.50
2018-10-07T12:43:20.079Z,83.20
2018-10-07T12:45:48.650Z,83.20
2018-10-07T12:48:17.211Z,83.30
2018-10-07T12:50:45.772Z,83.90
2018-10-07T12:53:14.366Z,84.10
2018-10-07T12:55:43.279Z,84.50
2018-10-07T12:58:11.896Z,84.60
2018-10-07T13:00:40.460Z,84.80
2018-10-07T13:03:09.066Z,85.20
2018-10-07T13:05:37.730Z,85.20
2018-10-07T13:08:06.362Z,85.60
2018-10-07T13:10:34.988Z,85.70
2018-10-07T13:13:03.564Z,85.90
2018-10-07T13:15:32.117Z,85.40
2018-10-07T13:18:00.677Z,84.80
2018-10-07T13:20:29.291Z,85.10
2018-10-07T13:22:57.859Z,85.80
2018-10-07T13:25:26.388Z,85.70
2018-10-07T13:27:54.941Z,85.80
2018-10-07T13:30:23.525Z,86.00
2018-10-07T13:32:52.072Z,86.10
2018-10-07T13:35:20.747Z,86.30
2018-10-07T13:37:49.362Z,85.40
2018-10-07T13:40:17.983Z,85.70
2018-10-07T13:42:46.573Z,85.90
2018-10-07T13:45:15.169Z,86.40
2018-10-07T13:47:43.833Z,86.30
2018-10-07T13:50:12.392Z,85.90
2018-10-07T13:52:40.925Z,85.70
2018-10-07T13:55:09.493Z,86.10
2018-10-07T13:57:38.053Z,86.60
2018-10-07T14:00:06.641Z,87.00
2018-10-07T14:02:35.216Z,87.00
2018-10-07T14:05:03.799Z,87.20
2018-10-07T14:07:32.345Z,87.30
2018-10-07T14:10:00.901Z,87.40
2018-10-07T14:12:29.484Z,87.70
2018-10-07T14:14:58.097Z,88.00
2018-10-07T14:17:26.652Z,88.00
2018-10-07T14:19:55.203Z,87.80
2018-10-07T14:22:23.761Z,87.30
2018-10-07T14:24:52.318Z,86.90
2018-10-07T14:27:20.867Z,87.60
2018-10-07T14:29:49.391Z,87.50
2018-10-07T14:32:17.959Z,87.00
2018-10-07T14:34:46.546Z,87.30
2018-10-07T14:37:15.108Z,87.60
2018-10-07T14:39:43.741Z,87.80
2018-10-07T14:42:12.433Z,87.90
2018-10-07T14:44:40.990Z,87.10
2018-10-07T14:47:09.541Z,87.10
2018-10-07T14:49:38.179Z,87.00
2018-10-07T14:52:06.770Z,86.50
2018-10-07T14:54:35.434Z,86.60
2018-10-07T14:57:04.051Z,86.50
2018-10-07T14:59:32.708Z,86.50
2018-10-07T15:02:01.292Z,86.70
2018-10-07T15:04:29.855Z,86.80
2018-10-07T15:06:58.433Z,87.30
2018-10-07T15:09:27.062Z,86.50
2018-10-07T15:11:55.611Z,86.30
2018-10-07T15:14:24.259Z,85.90
2018-10-07T15:16:52.872Z,86.50
2018-10-07T15:19:21.427Z,86.30
2018-10-07T15:21:50.064Z,86.10
2018-10-07T15:24:18.617Z,85.80
2018-10-07T15:26:47.324Z,85.80
2018-10-07T15:29:15.891Z,85.10
2018-10-07T15:31:44.557Z,85.30
2018-10-07T15:34:13.209Z,84.90
2018-10-07T15:36:41.774Z,84.80
2018-10-07T15:39:10.321Z,84.90
2018-10-07T15:41:38.913Z,85.00
2018-10-07T15:44:07.504Z,84.90
2018-10-07T15:46:36.065Z,84.60
2018-10-07T15:49:04.690Z,84.70
2018-10-07T15:51:33.280Z,85.00
2018-10-07T15:54:01.831Z,84.40
2018-10-07T15:56:30.361Z,84.20
2018-10-07T15:58:58.903Z,84.20
2018-10-07T16:01:27.508Z,84.50
2018-10-07T16:03:56.059Z,84.90
2018-10-07T16:06:24.627Z,84.80
2018-10-07T16:08:53.309Z,84.90
2018-10-07T16:11:21.825Z,84.80
2018-10-07T16:13:50.390Z,84.80
2018-10-07T16:16:18.945Z,84.90
2018-10-07T16:18:47.517Z,85.10
2018-10-07T16:21:16.081Z,85.20
2018-10-07T16:23:44.702Z,85.80
2018-10-07T16:26:13.312Z,85.80
2018-10-07T16:28:41.854Z,86.00
2018-10-07T16:31:10.458Z,86.00
2018-10-07T16:33:39.113Z,86.40
2018-10-07T16:36:07.702Z,86.40
2018-10-07T16:38:36.265Z,86.80
2018-10-07T16:41:04.836Z,86.80
2018-10-07T16:43:33.509Z,86.80
2018-10-07T16:46:02.116Z,87.00
2018-10-07T16:48:30.756Z,87.20
2018-10-07T16:50:59.377Z,87.40
2018-10-07T16:53:27.918Z,87.40
2018-10-07T16:55:56.496Z,87.00
2018-10-07T16:58:25.057Z,87.50
2018-10-07T17:00:53.706Z,87.40
2018-10-07T17:03:22.272Z,87.50
2018-10-07T17:05:50.824Z,87.40
2018-10-07T17:08:22.791Z,87.60
2018-10-07T17:10:51.375Z,87.80
2018-10-07T17:13:20.102Z,87.70
2018-10-07T17:15:48.585Z,87.90
2018-10-07T17:18:17.140Z,87.80
2018-10-07T17:20:45.809Z,87.20
2018-10-07T17:23:14.427Z,87.00
2018-10-07T17:25:42.998Z,86.30
2018-10-07T17:28:11.521Z,86.40
2018-10-07T17:30:40.157Z,86.30
2018-10-07T17:33:08.775Z,86.20
2018-10-07T17:35:37.447Z,86.60
2018-10-07T17:38:06.208Z,86.60
2018-10-07T17:40:34.821Z,86.60
2018-10-07T17:43:03.447Z,86.30
2018-10-07T17:45:32.003Z,86.70
2018-10-07T17:48:02.300Z,86.20
2018-10-07T17:50:30.905Z,86.80
2018-10-07T17:52:59.445Z,86.40
2018-10-07T17:55:28.471Z,86.10
2018-10-07T17:57:57.054Z,86.20
2018-10-07T18:00:26.989Z,86.10
2018-10-07T18:02:55.646Z,86.20
2018-10-07T18:05:24.181Z,86.40
2018-10-07T18:07:53.092Z,86.30
2018-10-07T18:10:21.676Z,86.20
2018-10-07T18:12:50.341Z,86.40
2018-10-07T18:15:18.931Z,86.30
2018-10-07T18:17:47.498Z,85.90
2018-10-07T18:20:16.096Z,85.30
2018-10-07T18:22:44.768Z,85.30
2018-10-07T18:25:13.327Z,85.30
2018-10-07T18:27:41.927Z,85.10
2018-10-07T18:30:10.504Z,84.80
2018-10-07T18:32:39.144Z,84.90
2018-10-07T18:35:07.734Z,84.70
2018-10-07T18:37:36.341Z,84.50
2018-10-07T18:40:05.045Z,84.50
2018-10-07T18:42:33.590Z,84.70
2018-10-07T18:45:02.177Z,84.60
2018-10-07T18:47:30.843Z,84.30
2018-10-07T18:49:59.483Z,84.50
2018-10-07T18:52:28.076Z,85.10
2018-10-07T18:54:56.665Z,85.30
2018-10-07T18:57:25.228Z,85.60
2018-10-07T18:59:53.784Z,85.10
2018-10-07T19:02:22.373Z,84.50
2018-10-07T19:04:50.957Z,84.10
2018-10-07T19:07:19.552Z,83.90
2018-10-07T19:09:48.135Z,84.20
2018-10-07T19:12:16.715Z,84.70
2018-10-07T19:14:45.300Z,84.40
2018-10-07T19:17:13.901Z,84.30
2018-10-07T19:19:42.463Z,84.50
2018-10-07T19:22:11.025Z,84.20
2018-10-07T19:24:39.652Z,84.30
2018-10-07T19:27:08.435Z,84.50
2018-10-07T19:29:37.062Z,84.40
2018-10-07T19:32:05.625Z,84.60
2018-10-07T19:34:34.186Z,84.60
2018-10-07T19:37:02.883Z,84.60
2018-10-07T19:39:31.420Z,84.40
2018-10-07T19:41:59.982Z,84.40
2018-10-07T19:44:28.564Z,84.70
2018-10-07T19:46:57.103Z,84.60
2018-10-07T19:49:25.706Z,84.20
2018-10-07T19:51:54.272Z,83.80
2018-10-07T19:54:22.822Z,84.30
2018-10-07T19:56:51.490Z,84.80
2018-10-07T19:59:20.026Z,84.70
2018-10-07T20:01:48.705Z,84.80
2018-10-07T20:04:17.262Z,85.00
2018-10-07T20:06:45.831Z,84.70
2018-10-07T20:09:14.463Z,84.80
2018-10-07T20:11:43.064Z,84.90
2018-10-07T20:14:11.599Z,84.60
2018-10-07T20:16:40.224Z,84.80
2018-10-07T20:19:08.870Z,84.90
2018-10-07T20:21:37.443Z,85.10
2018-10-07T20:24:06.030Z,84.50
2018-10-07T20:26:34.623Z,84.90
2018-10-07T20:29:03.203Z,84.70
2018-10-07T20:31:31.732Z,84.60
2018-10-07T20:34:00.364Z,84.80
2018-10-07T20:36:28.899Z,85.10
2018-10-07T20:38:57.664Z,85.10
2018-10-07T20:41:26.238Z,85.20
2018-10-07T20:43:54.776Z,85.20
2018-10-07T20:46:23.305Z,85.70
2018-10-07T20:48:51.895Z,86.20
2018-10-07T20:51:20.557Z,86.10
2018-10-07T20:53:49.083Z,86.40
2018-10-07T20:56:17.660Z,86.40
2018-10-07T20:58:46.221Z,86.40
2018-10-07T21:01:14.762Z,86.70
2018-10-07T21:03:43.337Z,86.30
2018-10-07T21:06:11.938Z,86.50
2018-10-07T21:08:40.549Z,86.70
2018-10-07T21:11:09.150Z,86.60
2018-10-07T21:13:38.201Z,87.30
2018-10-07T21:16:06.848Z,87.10
2018-10-07T21:18:35.388Z,87.10
2018-10-07T21:21:03.969Z,87.30
2018-10-07T21:23:32.528Z,87.60
2018-10-07T21:26:01.090Z,87.60
2018-10-07T21:28:29.627Z,88.20
2018-10-07T21:30:58.345Z,88.30
2018-10-07T21:33:26.894Z,88.60
2018-10-07T21:35:55.431Z,88.50
2018-10-07T21:38:23.992Z,88.60
2018-10-07T21:40:52.814Z,88.70
2018-10-07T21:43:21.362Z,88.50
2018-10-07T21:45:49.889Z,88.80
2018-10-07T21:48:18.867Z,88.70
2018-10-07T21:50:47.444Z,89.00
2018-10-07T21:53:15.997Z,89.30
2018-10-07T21:55:44.549Z,89.40
2018-10-07T21:58:13.073Z,89.70
2018-10-07T22:00:41.684Z,90.20
2018-10-07T22:03:10.215Z,89.70
2018-10-07T22:08:07.088Z,90.30
2018-10-07T22:10:35.621Z,90.70
2018-10-07T22:13:04.176Z,90.20
2018-10-07T22:15:32.709Z,90.10
2018-10-07T22:18:01.249Z,90.20
2018-10-07T22:20:29.784Z,90.10
2018-10-07T22:22:58.328Z,90.10
2018-10-07T22:25:26.909Z,90.40
2018-10-07T22:27:55.436Z,90.60
2018-10-07T22:30:24.064Z,90.70
2018-10-07T22:32:52.615Z,90.40
2018-10-07T22:35:21.165Z,90.50
2018-10-07T22:37:49.729Z,90.80
2018-10-07T22:40:18.283Z,90.90
2018-10-07T22:42:46.824Z,90.90
2018-10-07T22:45:15.390Z,91.10
2018-10-07T22:47:43.953Z,91.20
2018-10-07T22:50:12.500Z,91.00
2018-10-07T22:52:41.058Z,91.20
2018-10-07T22:55:09.606Z,90.80
2018-10-07T22:57:38.192Z,90.80
2018-10-07T23:00:07.623Z,90.80
2018-10-07T23:02:36.183Z,90.70
2018-10-07T23:05:05.201Z,90.90
2018-10-07T23:07:33.745Z,91.30
2018-10-07T23:10:02.303Z,90.80
2018-10-07T23:12:30.845Z,90.90
2018-10-07T23:14:59.386Z,90.90
2018-10-07T23:17:27.938Z,90.90
2018-10-07T23:19:56.535Z,91.30
2018-10-07T23:22:25.083Z,91.30
2018-10-07T23:24:53.643Z,90.90
2018-10-07T23:27:22.194Z,90.90
2018-10-07T23:29:50.751Z,91.20
2018-10-07T23:32:19.284Z,91.50
2018-10-07T23:34:47.801Z,91.80
2018-10-07T23:37:16.420Z,92.20
2018-10-07T23:39:44.949Z,92.50
2018-10-07T23:42:13.498Z,92.50
2018-10-07T23:44:42.046Z,92.60
2018-10-07T23:47:10.631Z,92.60
2018-10-07T23:49:39.175Z,92.40
2018-10-07T23:52:08.263Z,92.20
2018-10-07T23:54:36.897Z,91.90
2018-10-07T23:57:05.534Z,91.70
2018-10-07T23:59:34.089Z,92.00
